Time;durP1;ratioP1;P1;durP2;ratioP2;P2;SDS_P1;SDS_P2;PMS_P1;PMS_P2;Temp;Humidity;BMP_temperature;BMP_pressure;BME280_temperature;BME280_humidity;BME280_pressure;Samples;Min_cycle;Max_cycle;Signal;HPM_P1;HPM_P2
2023/03/16 00:00:31;;;;;;;15.30;3.92;;;4.20;99.90;;;;;;5047329;28;20126;-66
2023/03/16 00:02:57;;;;;;;4.05;2.05;;;4.20;99.90;;;;;;5047592;28;20422;-66
2023/03/16 00:05:24;;;;;;;6.03;3.03;;;4.20;99.90;;;;;;5047272;28;20048;-66
2023/03/16 00:07:50;;;;;;;5.70;2.53;;;4.20;99.90;;;;;;5048536;28;20038;-66
2023/03/16 00:10:16;;;;;;;6.72;2.75;;;4.20;99.90;;;;;;5048855;28;20474;-66
2023/03/16 00:12:43;;;;;;;8.65;2.50;;;4.20;99.90;;;;;;5046736;28;20055;-66
2023/03/16 00:15:10;;;;;;;5.18;2.45;;;4.20;99.90;;;;;;5048575;28;20052;-67
2023/03/16 00:17:36;;;;;;;4.30;2.30;;;4.20;99.90;;;;;;5052295;28;20045;-66
2023/03/16 00:20:05;;;;;;;5.78;2.67;;;4.30;99.90;;;;;;5051332;28;20045;-66
2023/03/16 00:22:31;;;;;;;5.50;2.40;;;4.30;99.90;;;;;;5050723;28;20088;-66
2023/03/16 00:24:57;;;;;;;4.68;2.45;;;4.30;99.90;;;;;;5051858;28;20088;-66
2023/03/16 00:27:24;;;;;;;5.00;2.53;;;4.30;99.90;;;;;;5050239;28;20092;-66
2023/03/16 00:29:55;;;;;;;4.10;2.00;;;4.30;99.90;;;;;;5052104;28;20047;-66
2023/03/16 00:32:25;;;;;;;;;;;4.40;99.90;;;;;;5051150;28;20056;-66
2023/03/16 00:34:51;;;;;;;8.55;2.72;;;4.30;99.90;;;;;;5050456;28;20331;-67
2023/03/16 00:37:18;;;;;;;3.72;2.25;;;4.30;99.90;;;;;;5051699;28;20405;-66
2023/03/16 00:39:45;;;;;;;5.05;2.85;;;4.30;99.90;;;;;;5049826;28;20056;-66
2023/03/16 00:42:13;;;;;;;3.42;2.30;;;4.30;99.90;;;;;;5050772;28;20067;-66
2023/03/16 00:44:42;;;;;;;6.93;3.45;;;4.30;99.90;;;;;;5050602;28;20134;-66
2023/03/16 00:47:09;;;;;;;8.43;3.30;;;4.30;99.90;;;;;;5049816;28;20048;-67
2023/03/16 00:49:35;;;;;;;6.13;2.53;;;4.30;99.90;;;;;;5050305;28;20052;-66
2023/03/16 00:52:03;;;;;;;4.72;3.17;;;4.30;99.90;;;;;;5050207;28;20478;-66
2023/03/16 00:54:31;;;;;;;4.03;2.75;;;4.30;99.90;;;;;;5049837;28;20044;-66
2023/03/16 00:57:01;;;;;;;4.05;2.65;;;4.30;99.90;;;;;;5051607;28;20397;-67
2023/03/16 00:59:28;;;;;;;5.47;3.00;;;4.20;99.90;;;;;;5051522;28;20402;-66
2023/03/16 01:01:54;;;;;;;6.55;3.65;;;4.20;99.90;;;;;;5049420;28;20049;-67
2023/03/16 01:04:21;;;;;;;6.97;3.13;;;4.20;99.90;;;;;;5051276;28;20037;-66
2023/03/16 01:06:48;;;;;;;4.13;2.38;;;4.20;99.90;;;;;;5033698;28;20393;-67
2023/03/16 01:09:14;;;;;;;4.97;2.60;;;4.20;99.90;;;;;;5049794;28;20287;-66
2023/03/16 01:11:44;;;;;;;10.20;3.60;;;4.20;99.90;;;;;;5051312;28;20401;-66
2023/03/16 01:14:10;;;;;;;6.60;2.83;;;4.10;99.90;;;;;;5049915;28;20489;-66
2023/03/16 01:16:36;;;;;;;6.30;2.90;;;4.10;99.90;;;;;;5050543;28;20090;-66
2023/03/16 01:19:02;;;;;;;4.80;2.60;;;4.10;99.90;;;;;;5050027;28;20037;-66
2023/03/16 01:21:28;;;;;;;6.50;3.25;;;4.10;99.90;;;;;;5050854;28;20386;-66
2023/03/16 01:23:54;;;;;;;4.65;2.92;;;4.10;99.90;;;;;;5049344;28;20107;-66
2023/03/16 01:26:22;;;;;;;5.63;2.63;;;4.10;99.90;;;;;;5049230;28;20049;-66
2023/03/16 01:28:48;;;;;;;5.43;2.97;;;4.10;99.90;;;;;;5031373;28;20041;-66
2023/03/16 01:31:15;;;;;;;8.32;3.80;;;4.10;99.90;;;;;;5049493;28;20047;-66
2023/03/16 01:33:42;;;;;;;7.97;2.88;;;4.10;99.90;;;;;;5050995;28;20047;-66
2023/03/16 01:36:12;;;;;;;5.15;2.65;;;4.10;99.90;;;;;;5032180;28;20045;-66
2023/03/16 01:38:38;;;;;;;;;;;4.10;99.90;;;;;;5051220;28;20040;-66
2023/03/16 01:41:05;;;;;;;7.40;3.10;;;4.10;99.90;;;;;;5050794;28;19920;-66
2023/03/16 01:43:33;;;;;;;4.70;2.25;;;4.10;99.90;;;;;;5048857;28;20068;-66
2023/03/16 01:46:04;;;;;;;4.38;2.67;;;4.10;99.90;;;;;;5050475;28;20037;-66
2023/03/16 01:48:36;;;;;;;7.30;4.97;;;4.20;99.90;;;;;;5049439;28;20041;-66
2023/03/16 01:51:36;;;;;;;6.95;3.17;;;4.10;99.90;;;;;;5048955;28;20052;-66
2023/03/16 01:54:13;;;;;;;4.35;2.60;;;4.10;99.90;;;;;;5048840;28;20446;-66
2023/03/16 01:56:50;;;;;;;6.57;2.92;;;4.10;99.90;;;;;;5032757;28;20053;-66
2023/03/16 01:59:19;;;;;;;3.95;3.05;;;4.20;99.90;;;;;;5049198;28;20424;-66
2023/03/16 02:01:46;;;;;;;9.48;3.15;;;4.20;99.90;;;;;;5050089;28;20041;-66
2023/03/16 02:04:15;;;;;;;4.63;3.42;;;4.20;99.90;;;;;;5048578;28;20053;-65
2023/03/16 02:06:41;;;;;;;9.32;3.50;;;4.20;99.90;;;;;;5049129;28;20254;-65
2023/03/16 02:09:08;;;;;;;4.25;2.78;;;4.20;99.90;;;;;;5032232;28;20485;-66
2023/03/16 02:11:34;;;;;;;6.45;2.65;;;4.20;99.90;;;;;;5048752;28;20080;-67
2023/03/16 02:14:06;;;;;;;6.47;3.17;;;4.20;99.90;;;;;;5049168;28;20124;-65
2023/03/16 02:16:32;;;;;;;6.22;3.15;;;4.20;99.90;;;;;;5050276;28;20056;-66
2023/03/16 02:18:58;;;;;;;5.03;3.20;;;4.30;99.90;;;;;;5048049;28;20045;-64
2023/03/16 02:21:34;;;;;;;5.68;2.97;;;4.20;99.90;;;;;;5049709;28;20494;-63
2023/03/16 02:24:02;;;;;;;6.28;2.92;;;4.30;99.90;;;;;;5050105;28;20116;-64
2023/03/16 02:26:37;;;;;;;5.35;3.03;;;4.30;99.90;;;;;;5048079;28;20383;-64
2023/03/16 02:29:24;;;;;;;4.90;2.67;;;4.30;99.90;;;;;;5048804;28;20404;-65
2023/03/16 02:31:51;;;;;;;5.90;3.35;;;4.30;99.90;;;;;;5047839;28;20045;-65
2023/03/16 02:34:17;;;;;;;4.63;2.47;;;4.40;99.90;;;;;;5048407;28;20045;-65
2023/03/16 02:36:45;;;;;;;4.93;3.13;;;4.40;99.90;;;;;;5048617;28;20056;-65
2023/03/16 02:39:11;;;;;;;4.78;2.60;;;4.40;99.90;;;;;;5048808;28;20083;-65
2023/03/16 02:41:38;;;;;;;4.20;2.88;;;4.40;99.90;;;;;;5049572;28;20120;-65
2023/03/16 02:44:13;;;;;;;5.75;2.60;;;4.40;99.90;;;;;;5048236;28;20106;-68
2023/03/16 02:46:42;;;;;;;7.43;3.72;;;4.50;99.90;;;;;;5048100;28;20041;-65
2023/03/16 02:49:23;;;;;;;6.95;3.58;;;4.50;99.90;;;;;;5048523;28;20076;-65
2023/03/16 02:51:50;;;;;;;5.97;2.85;;;4.50;99.90;;;;;;5031943;28;20110;-66
2023/03/16 02:54:16;;;;;;;5.35;2.72;;;4.50;99.90;;;;;;5047605;28;20041;-66
2023/03/16 02:56:42;;;;;;;7.22;3.35;;;4.50;99.90;;;;;;5049282;28;20123;-65
2023/03/16 02:59:08;;;;;;;8.55;3.45;;;4.50;99.90;;;;;;5049605;28;20553;-66
2023/03/16 03:01:35;;;;;;;5.07;2.58;;;4.50;99.90;;;;;;5047325;28;20559;-66
2023/03/16 03:04:02;;;;;;;5.30;2.88;;;4.50;99.90;;;;;;5048130;28;20427;-67
2023/03/16 03:06:28;;;;;;;9.90;4.22;;;4.50;99.90;;;;;;5049218;28;20116;-66
2023/03/16 03:08:54;;;;;;;4.70;3.22;;;4.50;99.90;;;;;;5047549;28;20128;-65
2023/03/16 03:11:19;;;;;;;4.18;3.00;;;4.50;99.90;;;;;;5049027;28;20156;-65
2023/03/16 03:13:46;;;;;;;6.55;3.30;;;4.50;99.90;;;;;;5047193;28;20106;-65
2023/03/16 03:16:13;;;;;;;5.10;3.63;;;4.50;99.90;;;;;;5048984;28;20045;-66
2023/03/16 03:18:39;;;;;;;6.72;3.85;;;4.50;99.90;;;;;;5047762;28;20557;-66
2023/03/16 03:21:06;;;;;;;7.50;4.13;;;4.50;99.90;;;;;;5047390;28;20037;-66
2023/03/16 03:23:34;;;;;;;5.43;3.58;;;4.50;99.90;;;;;;5049074;28;20052;-66
2023/03/16 03:26:01;;;;;;;5.43;2.95;;;4.50;99.90;;;;;;5047496;28;20502;-65
2023/03/16 03:28:28;;;;;;;3.88;2.83;;;4.50;99.90;;;;;;5047129;28;20049;-66
2023/03/16 03:30:54;;;;;;;5.20;2.90;;;4.50;99.90;;;;;;5047688;28;20497;-66
2023/03/16 03:33:21;;;;;;;10.07;3.72;;;4.50;99.90;;;;;;5047747;28;20040;-65
2023/03/16 03:35:54;;;;;;;5.07;3.03;;;4.50;99.90;;;;;;5048249;28;20072;-65
2023/03/16 03:38:20;;;;;;;3.85;2.85;;;4.50;99.90;;;;;;5047549;28;20130;-65
2023/03/16 03:40:51;;;;;;;5.60;2.85;;;4.40;99.90;;;;;;5047489;28;20319;-66
2023/03/16 03:43:18;;;;;;;7.15;4.13;;;4.50;99.90;;;;;;5048396;28;20186;-66
2023/03/16 03:45:44;;;;;;;7.68;4.35;;;4.50;99.90;;;;;;5047558;28;20314;-66
2023/03/16 03:48:10;;;;;;;10.43;4.70;;;4.40;99.90;;;;;;5047800;28;20389;-65
2023/03/16 03:50:37;;;;;;;7.55;3.88;;;4.50;99.90;;;;;;5047591;28;20049;-65
2023/03/16 03:53:03;;;;;;;7.00;4.30;;;4.50;99.90;;;;;;5052572;28;20401;-64
2023/03/16 03:55:30;;;;;;;8.02;4.10;;;4.40;99.90;;;;;;5052954;28;20120;-65
2023/03/16 03:57:56;;;;;;;11.15;4.38;;;4.50;99.90;;;;;;5050757;28;20508;-64
2023/03/16 04:00:21;;;;;;;5.45;3.47;;;4.50;99.90;;;;;;5052510;28;20076;-65
2023/03/16 04:02:48;;;;;;;6.45;4.00;;;4.40;99.90;;;;;;5052017;28;20124;-65
2023/03/16 04:05:14;;;;;;;8.55;4.03;;;4.40;99.90;;;;;;5051569;28;20041;-65
2023/03/16 04:07:40;;;;;;;6.72;4.25;;;4.40;99.90;;;;;;5052485;28;20048;-63
2023/03/16 04:10:06;;;;;;;8.65;4.30;;;4.40;99.90;;;;;;5050521;28;20080;-64
2023/03/16 04:12:32;;;;;;;7.68;4.10;;;4.40;99.90;;;;;;5052385;28;20090;-64
2023/03/16 04:14:58;;;;;;;10.38;4.18;;;4.40;99.90;;;;;;5051180;28;20049;-66
2023/03/16 04:17:24;;;;;;;6.63;4.15;;;4.40;99.90;;;;;;5051665;28;20452;-66
2023/03/16 04:19:50;;;;;;;8.15;4.03;;;4.40;99.90;;;;;;5052080;28;20124;-65
2023/03/16 04:22:17;;;;;;;5.00;3.70;;;4.40;99.90;;;;;;5034368;28;20102;-63
2023/03/16 04:24:43;;;;;;;6.03;4.18;;;4.40;99.90;;;;;;5050017;28;20520;-65
2023/03/16 04:27:10;;;;;;;5.72;3.85;;;4.40;99.90;;;;;;5052254;28;20493;-65
2023/03/16 04:29:37;;;;;;;8.93;5.32;;;4.40;99.90;;;;;;5052352;28;20037;-64
2023/03/16 04:32:05;;;;;;;8.18;5.03;;;4.40;99.90;;;;;;5050108;28;20052;-65
2023/03/16 04:34:31;;;;;;;6.90;4.22;;;4.40;99.90;;;;;;5051828;28;20033;-65
2023/03/16 04:36:56;;;;;;;8.70;4.65;;;4.40;99.90;;;;;;5050938;28;20128;-65
2023/03/16 04:39:22;;;;;;;7.65;4.63;;;4.40;99.90;;;;;;5051533;28;20442;-65
2023/03/16 04:41:48;;;;;;;6.70;4.10;;;4.40;99.90;;;;;;5051738;28;20398;-65
2023/03/16 04:44:14;;;;;;;8.38;5.65;;;4.40;99.90;;;;;;5050568;28;20098;-65
2023/03/16 04:46:40;;;;;;;9.82;5.03;;;4.40;99.90;;;;;;5049906;28;20040;-65
2023/03/16 04:49:08;;;;;;;7.18;4.75;;;4.40;99.90;;;;;;5050553;28;20039;-65
2023/03/16 04:51:36;;;;;;;10.88;5.38;;;4.40;99.90;;;;;;5051776;28;20083;-65
2023/03/16 04:54:02;;;;;;;8.80;5.18;;;4.40;99.90;;;;;;5049693;28;20125;-65
2023/03/16 04:56:28;;;;;;;7.32;5.07;;;4.40;99.90;;;;;;5051459;28;20048;-64
2023/03/16 04:58:55;;;;;;;9.35;5.60;;;4.30;99.90;;;;;;5050821;28;20500;-65
2023/03/16 05:01:22;;;;;;;9.93;5.55;;;4.30;99.90;;;;;;5049983;28;20044;-65
2023/03/16 05:03:48;;;;;;;7.70;5.28;;;4.30;99.90;;;;;;5050406;28;20124;-65
2023/03/16 05:06:14;;;;;;;7.15;5.10;;;4.30;99.90;;;;;;5050683;28;20044;-65
2023/03/16 05:08:40;;;;;;;10.85;5.68;;;4.20;99.90;;;;;;5050271;28;20076;-66
2023/03/16 05:11:06;;;;;;;8.32;5.15;;;4.20;99.90;;;;;;5050101;28;20464;-65
2023/03/16 05:13:32;;;;;;;10.35;6.07;;;4.30;99.90;;;;;;5049388;28;20049;-65
2023/03/16 05:15:58;;;;;;;9.55;5.85;;;4.30;99.90;;;;;;5051163;28;20037;-65
2023/03/16 05:18:24;;;;;;;9.93;5.95;;;4.30;99.90;;;;;;5049747;28;20048;-65
2023/03/16 05:20:55;;;;;;;11.55;5.68;;;4.30;99.90;;;;;;5049088;28;20041;-65
2023/03/16 05:23:21;;;;;;;8.80;5.53;;;4.20;99.90;;;;;;5051179;28;20193;-65
2023/03/16 05:25:48;;;;;;;8.80;4.65;;;4.20;99.90;;;;;;5049551;28;20144;-65
2023/03/16 05:28:13;;;;;;;9.30;4.95;;;4.30;99.90;;;;;;5049006;28;20099;-66
2023/03/16 05:30:41;;;;;;;7.95;4.75;;;4.30;99.90;;;;;;5050845;28;20037;-65
2023/03/16 05:33:07;;;;;;;6.03;4.32;;;4.20;99.90;;;;;;5049398;28;20561;-65
2023/03/16 05:35:33;;;;;;;8.55;5.45;;;4.30;99.90;;;;;;5048945;28;20560;-65
2023/03/16 05:37:58;;;;;;;7.95;4.95;;;4.30;99.90;;;;;;5050897;28;20041;-64
2023/03/16 05:40:25;;;;;;;12.88;5.88;;;4.30;99.90;;;;;;5049342;28;20529;-66
2023/03/16 05:42:55;;;;;;;8.95;5.47;;;4.40;99.90;;;;;;5049013;28;20128;-66
2023/03/16 05:45:21;;;;;;;;;;;4.30;99.90;;;;;;5051169;28;20079;-65
2023/03/16 05:47:46;;;;;;;9.95;4.65;;;4.30;99.90;;;;;;5048777;28;19971;-66
2023/03/16 05:50:15;;;;;;;10.23;5.75;;;4.30;99.90;;;;;;5050633;28;20040;-65
2023/03/16 05:52:43;;;;;;;11.15;4.90;;;4.40;99.90;;;;;;5050567;28;20116;-66
2023/03/16 05:55:10;;;;;;;9.25;5.32;;;4.40;99.90;;;;;;5049871;28;20182;-65
2023/03/16 05:57:35;;;;;;;8.95;5.63;;;4.40;99.90;;;;;;5050398;28;20115;-66
2023/03/16 06:00:14;;;;;;;8.55;5.60;;;4.30;99.90;;;;;;5048894;28;20120;-65
2023/03/16 06:02:42;;;;;;;8.13;4.88;;;4.30;99.90;;;;;;5049807;28;20084;-66
2023/03/16 06:05:08;;;;;;;11.35;5.28;;;4.30;99.90;;;;;;5050019;28;20660;-66
2023/03/16 06:07:35;;;;;;;9.30;5.72;;;4.40;99.90;;;;;;5050078;28;20041;-65
2023/03/16 06:10:01;;;;;;;11.13;5.32;;;4.30;99.90;;;;;;5050583;28;20401;-65
2023/03/16 06:12:27;;;;;;;12.38;6.25;;;4.30;99.90;;;;;;5049646;28;20040;-64
2023/03/16 06:14:52;;;;;;;8.02;4.80;;;4.40;99.90;;;;;;5049160;28;20448;-65
2023/03/16 06:17:18;;;;;;;8.15;5.32;;;4.40;99.90;;;;;;5050635;28;20040;-64
2023/03/16 06:19:44;;;;;;;8.13;4.80;;;4.40;99.90;;;;;;5051093;28;20048;-64
2023/03/16 06:22:10;;;;;;;9.30;6.00;;;4.40;99.90;;;;;;5049756;28;20053;-65
2023/03/16 06:24:36;;;;;;;9.98;5.90;;;4.40;99.90;;;;;;5050304;28;20025;-65
2023/03/16 06:27:01;;;;;;;9.45;4.90;;;4.40;99.90;;;;;;5049560;28;20075;-65
2023/03/16 06:29:28;;;;;;;6.85;4.75;;;4.40;99.90;;;;;;5051134;28;20075;-64
2023/03/16 06:31:54;;;;;;;9.00;5.00;;;4.50;99.90;;;;;;5049225;28;20040;-63
2023/03/16 06:34:20;;;;;;;5.32;4.00;;;4.50;99.90;;;;;;5050861;28;20520;-66
2023/03/16 06:36:45;;;;;;;7.72;4.90;;;4.50;99.90;;;;;;5048912;28;20187;-67
2023/03/16 06:39:13;;;;;;;9.70;6.45;;;4.50;99.90;;;;;;5049514;28;20041;-66
2023/03/16 06:41:41;;;;;;;8.98;5.82;;;4.60;99.90;;;;;;5050452;28;20033;-66
2023/03/16 06:44:08;;;;;;;8.23;3.90;;;4.50;99.90;;;;;;5048815;28;20041;-67
2023/03/16 06:46:33;;;;;;;9.23;4.43;;;4.60;99.90;;;;;;5050724;28;20029;-66
2023/03/16 06:48:59;;;;;;;5.55;3.80;;;4.60;99.90;;;;;;5049646;28;20565;-67
2023/03/16 06:51:26;;;;;;;6.82;3.35;;;4.60;99.90;;;;;;5048663;28;20073;-66
2023/03/16 06:53:52;;;;;;;7.35;4.35;;;4.60;99.90;;;;;;5049202;28;20048;-64
2023/03/16 06:56:18;;;;;;;5.57;3.33;;;4.70;99.90;;;;;;5049120;28;20044;-65
2023/03/16 06:58:44;;;;;;;6.75;4.40;;;4.70;99.90;;;;;;5048526;28;20037;-65
2023/03/16 07:01:11;;;;;;;8.18;4.40;;;4.80;99.90;;;;;;5049053;28;20130;-65
2023/03/16 07:03:37;;;;;;;7.03;4.53;;;4.70;99.90;;;;;;5049361;28;20049;-65
2023/03/16 07:06:03;;;;;;;5.10;3.05;;;4.80;99.90;;;;;;5049835;28;20060;-65
2023/03/16 07:08:29;;;;;;;7.47;4.18;;;4.80;99.90;;;;;;5049345;28;20486;-65
2023/03/16 07:10:55;;;;;;;7.18;4.78;;;4.80;99.90;;;;;;5049748;28;21253;-65
2023/03/16 07:13:21;;;;;;;9.18;4.43;;;4.80;99.90;;;;;;5048067;28;20044;-66
2023/03/16 07:15:51;;;;;;;10.52;5.15;;;4.80;99.90;;;;;;5049241;28;20048;-66
2023/03/16 07:18:17;;;;;;;7.53;4.32;;;4.80;99.90;;;;;;5049383;28;20037;-66
2023/03/16 07:20:43;;;;;;;6.63;4.25;;;4.80;99.90;;;;;;5049712;28;20048;-66
2023/03/16 07:23:09;;;;;;;10.02;5.50;;;4.80;99.90;;;;;;5050317;28;20041;-66
2023/03/16 07:25:36;;;;;;;5.95;4.43;;;4.80;99.90;;;;;;5052418;28;20049;-66
2023/03/16 07:28:02;;;;;;;8.82;4.70;;;4.80;99.90;;;;;;5052753;28;20053;-65
2023/03/16 07:30:28;;;;;;;7.82;4.55;;;4.80;99.90;;;;;;5054229;28;20076;-66
2023/03/16 07:32:54;;;;;;;10.02;5.50;;;4.80;99.90;;;;;;5035784;28;20045;-66
2023/03/16 07:35:20;;;;;;;8.75;4.10;;;4.90;99.90;;;;;;5052868;28;20052;-64
2023/03/16 07:37:46;;;;;;;7.00;4.82;;;4.90;99.90;;;;;;5054221;28;20044;-64
2023/03/16 07:40:13;;;;;;;6.28;3.83;;;4.90;99.90;;;;;;5051783;28;20911;-66
2023/03/16 07:42:39;;;;;;;11.05;4.63;;;4.90;99.90;;;;;;5052623;28;20048;-64
2023/03/16 07:45:06;;;;;;;5.00;3.20;;;4.90;99.90;;;;;;5052658;28;20215;-65
2023/03/16 07:47:32;;;;;;;9.93;4.72;;;4.90;99.90;;;;;;5052378;28;20036;-64
2023/03/16 07:49:58;;;;;;;9.77;5.55;;;4.90;99.90;;;;;;5054064;28;20413;-64
2023/03/16 07:52:24;;;;;;;9.48;4.88;;;4.90;99.90;;;;;;5052482;28;20485;-66
2023/03/16 07:54:50;;;;;;;5.45;3.40;;;4.90;99.90;;;;;;5051859;28;20492;-65
2023/03/16 07:57:16;;;;;;;8.15;4.43;;;4.90;99.90;;;;;;5053845;28;20049;-64
2023/03/16 07:59:42;;;;;;;6.32;3.20;;;4.90;99.90;;;;;;5053600;28;20041;-64
2023/03/16 08:02:17;;;;;;;10.02;4.85;;;5.00;99.90;;;;;;5051793;28;20100;-64
2023/03/16 08:04:43;;;;;;;4.90;2.60;;;5.00;99.90;;;;;;5052756;28;20055;-64
2023/03/16 08:07:14;;;;;;;8.23;4.50;;;5.00;99.90;;;;;;5052145;28;20120;-64
2023/03/16 08:09:40;;;;;;;6.25;3.97;;;5.00;99.90;;;;;;5034972;28;20037;-64
2023/03/16 08:12:08;;;;;;;8.63;5.40;;;5.00;99.90;;;;;;5053353;28;20065;-64
2023/03/16 08:14:34;;;;;;;4.60;3.13;;;5.00;99.90;;;;;;5053485;28;20037;-64
2023/03/16 08:17:07;;;;;;;7.68;4.82;;;5.00;99.90;;;;;;5052103;28;20091;-64
2023/03/16 08:19:35;;;;;;;9.20;4.57;;;5.00;99.90;;;;;;5053526;28;20037;-65
2023/03/16 08:22:02;;;;;;;7.78;4.68;;;5.00;99.90;;;;;;5050970;28;20045;-65
2023/03/16 08:24:30;;;;;;;5.45;3.40;;;5.00;99.90;;;;;;5052001;28;20041;-64
2023/03/16 08:26:56;;;;;;;8.30;4.32;;;5.00;99.90;;;;;;5052982;28;20524;-64
2023/03/16 08:29:23;;;;;;;7.47;4.22;;;5.10;99.90;;;;;;5052780;28;20095;-65
2023/03/16 08:31:51;;;;;;;9.38;4.20;;;5.10;99.90;;;;;;5034833;28;20098;-64
2023/03/16 08:34:17;;;;;;;8.50;4.00;;;5.10;99.90;;;;;;5053468;28;20215;-64
2023/03/16 08:36:43;;;;;;;7.68;3.97;;;5.10;99.90;;;;;;5050439;28;20489;-65
2023/03/16 08:39:09;;;;;;;7.18;3.38;;;5.10;99.90;;;;;;5052020;28;20388;-65
2023/03/16 08:41:35;;;;;;;9.02;4.20;;;5.10;99.90;;;;;;5052755;28;20037;-63
2023/03/16 08:44:02;;;;;;;6.10;3.53;;;5.20;99.90;;;;;;5052531;28;20048;-63
2023/03/16 08:46:27;;;;;;;8.23;3.75;;;5.20;99.90;;;;;;5051723;28;20500;-63
2023/03/16 08:48:54;;;;;;;7.60;3.83;;;5.20;99.90;;;;;;5051814;28;20049;-63
2023/03/16 08:51:20;;;;;;;7.50;4.57;;;5.20;99.90;;;;;;5051146;28;20059;-64
2023/03/16 08:53:46;;;;;;;9.85;3.80;;;5.20;99.90;;;;;;5051622;28;20045;-65
2023/03/16 08:56:13;;;;;;;6.00;3.15;;;5.20;99.90;;;;;;5052891;28;20103;-65
2023/03/16 08:58:44;;;;;;;10.70;5.25;;;5.20;99.90;;;;;;5050556;28;20055;-64
2023/03/16 09:01:16;;;;;;;7.10;4.75;;;5.20;99.90;;;;;;5052545;28;20045;-64
2023/03/16 09:03:44;;;;;;;9.30;4.68;;;5.10;99.90;;;;;;5052848;28;20557;-64
2023/03/16 09:06:12;;;;;;;5.55;3.17;;;5.10;99.90;;;;;;5051321;28;20045;-64
2023/03/16 09:08:39;;;;;;;9.20;4.60;;;5.10;99.90;;;;;;5051281;28;20045;-64
2023/03/16 09:11:08;;;;;;;7.50;4.53;;;5.10;99.90;;;;;;5046392;28;20082;-66
2023/03/16 09:13:35;;;;;;;6.93;4.40;;;5.20;99.90;;;;;;5051966;28;20091;-66
2023/03/16 09:16:01;;;;;;;7.13;4.88;;;5.20;99.90;;;;;;5051105;28;20079;-65
2023/03/16 09:18:27;;;;;;;7.13;4.95;;;5.20;99.90;;;;;;5051988;28;20577;-66
2023/03/16 09:20:58;;;;;;;8.10;4.97;;;5.20;99.90;;;;;;5050910;28;20033;-66
2023/03/16 09:23:26;;;;;;;6.60;4.85;;;5.20;99.90;;;;;;5034345;28;20076;-65
2023/03/16 09:25:53;;;;;;;6.95;4.28;;;5.20;99.90;;;;;;5049840;28;20049;-66
2023/03/16 09:28:19;;;;;;;9.05;5.43;;;5.20;99.90;;;;;;5051894;28;20110;-66
2023/03/16 09:30:46;;;;;;;10.10;3.67;;;5.20;99.90;;;;;;5034077;28;20049;-66
2023/03/16 09:33:12;;;;;;;7.80;4.63;;;5.20;99.90;;;;;;5051372;28;20044;-65
2023/03/16 09:35:38;;;;;;;9.10;3.85;;;5.10;99.90;;;;;;5050759;28;20075;-64
2023/03/16 09:38:04;;;;;;;9.98;4.55;;;5.20;99.90;;;;;;5050080;28;20045;-66
2023/03/16 09:40:30;;;;;;;9.27;6.10;;;5.20;99.90;;;;;;5049754;28;20096;-65
2023/03/16 09:43:13;;;;;;;10.48;6.50;;;5.20;99.90;;;;;;5051256;28;20059;-65
2023/03/16 09:46:11;;;;;;;8.25;4.15;;;5.20;99.90;;;;;;5049783;28;20486;-66
2023/03/16 09:48:39;;;;;;;8.57;5.15;;;5.20;99.90;;;;;;5049597;28;20087;-65
2023/03/16 09:51:15;;;;;;;7.05;4.30;;;5.30;99.90;;;;;;5050435;28;20041;-65
2023/03/16 09:53:40;;;;;;;4.93;2.83;;;5.30;99.90;;;;;;5049703;28;20088;-65
2023/03/16 09:56:15;;;;;;;13.80;3.88;;;5.40;99.90;;;;;;5050220;28;20080;-65
2023/03/16 09:58:41;;;;;;;10.27;4.57;;;5.50;99.90;;;;;;5050257;28;20048;-64
2023/03/16 10:01:17;;;;;;;5.80;3.40;;;5.50;99.90;;;;;;5050948;28;20032;-65
2023/03/16 10:04:14;;;;;;;9.35;4.80;;;5.60;99.90;;;;;;5046304;28;20060;-65
2023/03/16 10:07:06;;;;;;;8.30;3.92;;;5.70;99.90;;;;;;5051374;28;20040;-66
2023/03/16 10:09:52;;;;;;;6.80;4.05;;;5.80;99.90;;;;;;5051127;28;20040;-67
2023/03/16 10:12:20;;;;;;;7.35;3.95;;;5.80;99.90;;;;;;5051493;28;20397;-67
2023/03/16 10:14:57;;;;;;;7.30;4.07;;;5.90;99.90;;;;;;5049366;28;20045;-65
2023/03/16 10:17:28;;;;;;;7.53;4.15;;;6.00;99.90;;;;;;5049016;28;20045;-66
2023/03/16 10:19:58;;;;;;;5.22;3.17;;;6.00;99.90;;;;;;5050713;28;20048;-66
2023/03/16 10:22:29;;;;;;;7.85;3.90;;;6.10;99.90;;;;;;5048066;28;20040;-66
2023/03/16 10:25:07;;;;;;;7.85;3.97;;;6.20;99.90;;;;;;5049434;28;20053;-65
2023/03/16 10:27:39;;;;;;;6.65;3.72;;;6.20;99.90;;;;;;5049382;28;20602;-67
2023/03/16 10:30:27;;;;;;;6.43;3.53;;;6.20;99.90;;;;;;5047150;28;20036;-65
2023/03/16 10:32:54;;;;;;;10.80;4.50;;;6.30;99.90;;;;;;5048685;28;20053;-66
2023/03/16 10:35:29;;;;;;;4.97;2.75;;;6.40;99.90;;;;;;5050095;28;20457;-67
2023/03/16 10:37:56;;;;;;;5.63;4.15;;;6.40;99.90;;;;;;5048754;28;20107;-66
2023/03/16 10:40:22;;;;;;;10.15;4.00;;;6.40;99.90;;;;;;5049447;28;20404;-66
2023/03/16 10:42:48;;;;;;;9.48;4.20;;;6.50;99.90;;;;;;5050334;28;20090;-66
2023/03/16 10:45:28;;;;;;;7.93;4.85;;;6.50;99.90;;;;;;5049751;28;20477;-65
2023/03/16 10:48:05;;;;;;;5.25;3.13;;;6.50;99.90;;;;;;5050895;28;20052;-66
2023/03/16 10:50:31;;;;;;;7.10;3.50;;;6.60;99.90;;;;;;5048847;28;20095;-65
2023/03/16 10:53:00;;;;;;;5.47;3.75;;;6.70;99.90;;;;;;5051218;28;20060;-65
2023/03/16 10:55:31;;;;;;;7.53;4.18;;;6.70;99.90;;;;;;5050979;28;20047;-65
2023/03/16 10:57:57;;;;;;;9.15;3.55;;;6.90;99.90;;;;;;5048424;28;20084;-65
2023/03/16 11:00:45;;;;;;;4.55;2.55;;;7.00;99.90;;;;;;5049204;28;20091;-67
2023/03/16 11:03:24;;;;;;;4.88;2.17;;;7.10;99.90;;;;;;5048801;28;20033;-66
2023/03/16 11:06:01;;;;;;;7.37;3.80;;;7.20;99.90;;;;;;5050853;28;20082;-65
2023/03/16 11:08:32;;;;;;;8.52;2.85;;;7.40;99.90;;;;;;5049098;28;20076;-66
2023/03/16 11:11:13;;;;;;;6.15;3.88;;;7.50;99.90;;;;;;5048732;28;20072;-66
2023/03/16 11:13:44;;;;;;;7.22;3.40;;;7.60;99.90;;;;;;5050641;28;20064;-65
2023/03/16 11:16:32;;;;;;;5.35;3.80;;;7.80;99.90;;;;;;5050582;28;20504;-66
2023/03/16 11:19:03;;;;;;;6.88;2.90;;;8.00;99.90;;;;;;5049899;28;20101;-65
2023/03/16 11:21:50;;;;;;;7.78;3.50;;;8.20;99.90;;;;;;5048882;28;20076;-65
2023/03/16 11:24:29;;;;;;;4.07;2.53;;;8.20;99.90;;;;;;5048483;28;20120;-65
2023/03/16 11:26:59;;;;;;;5.27;3.17;;;8.40;99.90;;;;;;5050107;28;20085;-65
2023/03/16 11:29:31;;;;;;;6.78;3.42;;;8.50;99.90;;;;;;5050171;28;20500;-66
2023/03/16 11:32:04;;;;;;;4.90;3.40;;;8.80;99.90;;;;;;5048477;28;20041;-66
2023/03/16 11:34:32;;;;;;;6.55;3.83;;;9.00;99.90;;;;;;5050029;28;20039;-65
2023/03/16 11:37:24;;;;;;;7.00;3.05;;;9.10;99.90;;;;;;5047603;28;20103;-66
2023/03/16 11:40:14;;;;;;;5.82;2.92;;;9.20;99.90;;;;;;5047894;28;20524;-66
2023/03/16 11:43:09;;;;;;;6.63;3.83;;;9.10;99.90;;;;;;5050029;28;20373;-66
2023/03/16 11:45:48;;;;;;;7.28;3.58;;;9.10;99.90;;;;;;5047618;28;20075;-66
2023/03/16 11:48:25;;;;;;;6.22;3.63;;;9.10;99.90;;;;;;5050150;28;20041;-66
2023/03/16 11:50:57;;;;;;;6.10;3.15;;;9.10;99.90;;;;;;5049845;28;20056;-64
2023/03/16 11:53:44;;;;;;;7.60;4.10;;;9.10;99.90;;;;;;5048014;28;20037;-64
2023/03/16 11:56:27;;;;;;;5.95;2.95;;;9.20;99.90;;;;;;5049781;28;20040;-63
2023/03/16 11:59:15;;;;;;;8.75;3.47;;;9.00;99.90;;;;;;5028298;28;20470;-66
2023/03/16 12:01:47;;;;;;;7.85;3.67;;;8.90;99.90;;;;;;5028658;28;20096;-66
2023/03/16 12:04:17;;;;;;;7.72;3.38;;;8.90;99.90;;;;;;5045648;28;20398;-66
2023/03/16 12:06:45;;;;;;;5.50;3.35;;;8.90;99.90;;;;;;5044784;28;20053;-65
2023/03/16 12:09:41;;;;;;;6.72;3.80;;;8.90;99.90;;;;;;5029831;28;20041;-65
2023/03/16 12:12:17;;;;;;;6.13;3.60;;;8.90;99.90;;;;;;5059597;28;20053;-67
2023/03/16 12:15:06;;;;;;;7.80;3.75;;;8.90;99.90;;;;;;5031859;28;20037;-66
2023/03/16 12:17:36;;;;;;;5.55;3.38;;;8.90;99.90;;;;;;5032281;28;20092;-66
2023/03/16 12:20:23;;;;;;;6.32;3.10;;;8.90;99.90;;;;;;5033133;28;20472;-67
2023/03/16 12:22:54;;;;;;;5.15;3.22;;;8.80;99.90;;;;;;5035933;28;20048;-65
2023/03/16 12:25:24;;;;;;;6.05;3.80;;;8.80;99.90;;;;;;5051775;28;20068;-65
2023/03/16 12:27:57;;;;;;;5.57;2.95;;;8.70;99.90;;;;;;5051797;28;20120;-66
2023/03/16 12:30:40;;;;;;;4.38;3.15;;;8.70;99.90;;;;;;5052267;28;20405;-65
2023/03/16 12:33:25;;;;;;;5.68;3.60;;;8.70;99.90;;;;;;5053144;28;20079;-66
2023/03/16 12:35:55;;;;;;;6.15;2.63;;;8.70;99.90;;;;;;5051352;28;20037;-66
2023/03/16 12:38:29;;;;;;;5.93;3.33;;;8.70;99.90;;;;;;5035726;28;20037;-67
2023/03/16 12:41:08;;;;;;;6.60;3.53;;;8.70;99.90;;;;;;5052530;28;20385;-69
2023/03/16 12:43:46;;;;;;;4.70;3.03;;;8.70;99.90;;;;;;5035554;28;20051;-67
2023/03/16 12:46:52;;;;;;;4.25;3.55;;;8.70;99.90;;;;;;5053692;28;20033;-66
2023/03/16 12:49:19;;;;;;;6.32;3.00;;;8.70;99.90;;;;;;5051558;28;20064;-68
2023/03/16 12:51:47;;;;;;;6.47;3.30;;;8.80;99.90;;;;;;5051543;28;20108;-67
2023/03/16 12:54:24;;;;;;;7.95;3.85;;;8.80;99.90;;;;;;5035659;28;20044;-67
2023/03/16 12:56:55;;;;;;;7.47;3.35;;;8.80;99.90;;;;;;5051408;28;20045;-68
2023/03/16 12:59:33;;;;;;;6.75;3.15;;;9.00;99.90;;;;;;5052927;28;20048;-66
2023/03/16 13:02:05;;;;;;;9.15;4.25;;;9.10;99.90;;;;;;5052301;28;20098;-66
2023/03/16 13:04:34;;;;;;;5.40;3.80;;;9.20;99.90;;;;;;5052855;28;20037;-65
2023/03/16 13:07:06;;;;;;;6.55;3.28;;;9.20;99.90;;;;;;5051410;28;20052;-67
2023/03/16 13:09:40;;;;;;;8.57;3.20;;;9.30;99.90;;;;;;5052108;28;20036;-66